Observations for MIDDLE WALLOP, United Kingdom (EGVP)

EGVP 240850Z 22005KT 8000 HZ FEW050 SCT080 BKN100 19/17 Q1015 NOSIG RMK BLU BLU 
EGVP 240820Z 18005KT 9000 7000S -RA FEW050 BKN080 BKN140 19/17 Q1015 BECMG 8000 RMK WHT BECMG BLU   
EGVP 240750Z 16002KT 9000 7000S HZ FEW050 BKN100 BKN160 19/16 Q1014 BECMG 9999 NSW RMK WHT BECMG BLU
EGVP 240721Z 23003KT 7000 HZ FEW050 SCT140 BKN160 19/16 Q1014 BECMG 8000 RMK WHT BECMG BLU  
EGVP 240650Z 19002KT 7000 HZ FEW050 SCT120 BKN180 19/16 Q1014 NOSIG RMK WHT WHT 
EGVP 240623Z 06002KT 7000 HZ FEW050 BKN160 18/16 Q1013 RMK WHT  
EGVP 240550Z 09001KT 7000 HZ FEW100 SCT120 BKN160 18/16 Q1013 RMK WHT   
EGVP 240450Z AUTO 06003KT 7000 // OVC180/// 17/15 Q1012 
EGVP 240350Z AUTO 34002KT 3900 // OVC190/// 15/14 Q1013 
EGVP 240250Z AUTO 02003KT 5000 // BKN200/// 16/15 Q1012 
EGVP 240150Z AUTO 33002KT 6000 // BKN190/// 16/14 Q1013 
EGVP 240050Z AUTO 01001KT 8000 // BKN180/// 16/14 Q1013 
EGVP 232350Z AUTO 08002KT 9999 // OVC180/// 17/15 Q1013 
EGVP 232250Z AUTO 06003KT 9999 // FEW090/// OVC230/// 18/15 Q1013   
EGVP 232150Z AUTO 06004KT 9999 // FEW050/// BKN160/// BKN250/// 18/15 Q1014 
EGVP 232050Z AUTO 01002KT 9999 // FEW050/// OVC160/// 19/15 Q1014   
EGVP 231950Z AUTO 07010KT 9999 // SCT110/// BKN180/// 19/15 Q1013   
EGVP 231850Z AUTO 07011KT 9999 // OVC110/// 20/14 Q1013 
EGVP 231750Z AUTO 07011KT 9999 // BKN110/// BKN150/// 21/15 Q1013   
EGVP 231650Z AUTO 06008KT 9999 // OVC100/// 21/15 Q1014 
EGVP 231550Z AUTO 07007KT 9999 // OVC100/// 21/15 Q1014 
EGVP 231450Z AUTO 07009KT 9999 // FEW050/// OVC110/// 22/15 Q1014   
EGVP 231350Z AUTO 07008KT 9999 // BKN050/// OVC130/// 22/15 Q1015   
EGVP 231250Z AUTO 09012KT 9999 // OVC130/// 22/15 Q1015 
EGVP 231150Z AUTO 09011KT 9999 // BKN050/// SCT120/// 22/14 Q1015   
EGVP 231050Z AUTO 09010KT 9999 // BKN050/// BKN150/// 21/14 Q1016   
EGVP 230950Z AUTO 07007KT 9999 // SCT050/// BKN140/// 19/14 Q1016   
EGVP 230850Z AUTO 07008KT 9999 // SCT050/// BKN130/// 17/13 Q1017